Terminal Aerodrome Forecast
Issued by NWS

Current Version | Previous Version | Text Only | Print | Product List | Glossary Off
Versions: 1 2 3 4 5 6 7 8 9 10 11 12 13 14 15 16 17

031
FTUS41 KPBZ 261954 AAB
TAFMGW
TAF AMD
KMGW 261954Z 2620/2718 21008KT P6SM VCSH BKN050
      TEMPO 2620/2621 4SM -TSRA BKN050CB
     FM262200 22011G20KT 5SM -SHRA OVC020
     FM270000 28007KT P6SM VCSH OVC015
     FM270400 26004KT P6SM BKN070
     FM271600 23008KT P6SM FEW250=

USA.gov is the U.S. government's official web portal to all federal, state and local government web resources and services.